首页
METAR-TAF:

METAR-TAF

机场 :

Shelbyville, 田纳西州, 美国

纬度: 35-33-34N, 经度: 086-26-33W, 海拔: 244米

当前天气观测

该预报发布于23分钟前的00:35 UTC
静风
温度 23°C
湿度 78%
气压 1015 hPa
能見度: 16.1公里
天空无云

METAR: KSYI 270035Z AUTO 00000KT 10SM CLR 23/19 A2998 RMK A01

时间: 19:58 (00:58 UTC)


TAF: 丢失

超过4000个机场的气象观测和天气预报(METAR&TAF报告)。

可查询的气象台以黄色和红色小点在地图上表示。

将鼠标移到小点上方,可查看气象台名称。

然后点击查看天气观测和预报。

如需切换地图:点击带黑十字的绿色按钮放大地图;点击带横线的绿色按钮缩小地图;或者点击绿色箭头查看邻近地区的地图。


METAR-TAF: